sensor_id;sensor_type;location;lat;lon;timestamp;temperature;humidity
21031;DHT22;61072;47.808;7.636;2023-04-29T00:00:42;14.80;99.90
21031;DHT22;61072;47.808;7.636;2023-04-29T00:03:09;14.80;99.90
21031;DHT22;61072;47.808;7.636;2023-04-29T00:05:36;14.80;99.90
21031;DHT22;61072;47.808;7.636;2023-04-29T00:08:03;14.80;99.90
21031;DHT22;61072;47.808;7.636;2023-04-29T00:10:30;14.80;99.90
21031;DHT22;61072;47.808;7.636;2023-04-29T00:12:57;14.80;99.90
21031;DHT22;61072;47.808;7.636;2023-04-29T00:15:23;14.80;99.90
21031;DHT22;61072;47.808;7.636;2023-04-29T00:17:50;14.80;99.90
21031;DHT22;61072;47.808;7.636;2023-04-29T00:20:17;14.80;99.90
21031;DHT22;61072;47.808;7.636;2023-04-29T00:22:44;14.80;99.90
21031;DHT22;61072;47.808;7.636;2023-04-29T00:25:10;14.80;99.90
21031;DHT22;61072;47.808;7.636;2023-04-29T00:27:37;14.70;99.90
21031;DHT22;61072;47.808;7.636;2023-04-29T00:30:06;14.70;99.90
21031;DHT22;61072;47.808;7.636;2023-04-29T00:32:33;14.70;99.90
21031;DHT22;61072;47.808;7.636;2023-04-29T00:35:00;14.70;99.90
21031;DHT22;61072;47.808;7.636;2023-04-29T00:37:27;14.70;99.90
21031;DHT22;61072;47.808;7.636;2023-04-29T00:39:54;14.70;99.90
21031;DHT22;61072;47.808;7.636;2023-04-29T00:42:21;14.70;99.90
21031;DHT22;61072;47.808;7.636;2023-04-29T00:44:47;14.70;99.90
21031;DHT22;61072;47.808;7.636;2023-04-29T00:47:14;14.70;99.90
21031;DHT22;61072;47.808;7.636;2023-04-29T00:49:41;14.70;99.90
21031;DHT22;61072;47.808;7.636;2023-04-29T00:52:10;14.70;99.90
21031;DHT22;61072;47.808;7.636;2023-04-29T00:54:37;14.70;99.90
21031;DHT22;61072;47.808;7.636;2023-04-29T00:57:04;14.70;99.90
21031;DHT22;61072;47.808;7.636;2023-04-29T00:59:32;14.70;99.90
21031;DHT22;61072;47.808;7.636;2023-04-29T01:02:01;14.60;99.90
21031;DHT22;61072;47.808;7.636;2023-04-29T01:04:29;14.60;99.90
21031;DHT22;61072;47.808;7.636;2023-04-29T01:07:07;14.60;99.90
21031;DHT22;61072;47.808;7.636;2023-04-29T01:15:17;14.60;99.90
21031;DHT22;61072;47.808;7.636;2023-04-29T01:17:58;14.60;99.90
21031;DHT22;61072;47.808;7.636;2023-04-29T01:20:26;14.60;99.90
21031;DHT22;61072;47.808;7.636;2023-04-29T01:22:53;14.50;99.90
21031;DHT22;61072;47.808;7.636;2023-04-29T01:25:20;14.50;99.90
21031;DHT22;61072;47.808;7.636;2023-04-29T01:28:17;14.50;99.90
21031;DHT22;61072;47.808;7.636;2023-04-29T01:30:56;14.50;99.90
21031;DHT22;61072;47.808;7.636;2023-04-29T01:33:45;14.50;99.90
21031;DHT22;61072;47.808;7.636;2023-04-29T01:42:13;14.40;99.90
21031;DHT22;61072;47.808;7.636;2023-04-29T01:44:41;14.40;99.90
21031;DHT22;61072;47.808;7.636;2023-04-29T01:47:12;14.40;99.90
21031;DHT22;61072;47.808;7.636;2023-04-29T01:49:39;14.40;99.90
21031;DHT22;61072;47.808;7.636;2023-04-29T01:52:06;14.40;99.90
21031;DHT22;61072;47.808;7.636;2023-04-29T01:54:33;14.40;99.90
21031;DHT22;61072;47.808;7.636;2023-04-29T01:57:02;14.40;99.90
21031;DHT22;61072;47.808;7.636;2023-04-29T01:59:29;14.30;99.90
21031;DHT22;61072;47.808;7.636;2023-04-29T02:01:57;14.30;99.90
21031;DHT22;61072;47.808;7.636;2023-04-29T02:04:24;14.30;99.90
21031;DHT22;61072;47.808;7.636;2023-04-29T02:06:51;14.30;99.90
21031;DHT22;61072;47.808;7.636;2023-04-29T02:09:18;14.30;99.90
21031;DHT22;61072;47.808;7.636;2023-04-29T02:11:45;14.30;99.90
21031;DHT22;61072;47.808;7.636;2023-04-29T02:14:11;14.30;99.90
21031;DHT22;61072;47.808;7.636;2023-04-29T02:16:38;14.30;99.90
21031;DHT22;61072;47.808;7.636;2023-04-29T02:19:05;14.30;99.90
21031;DHT22;61072;47.808;7.636;2023-04-29T02:21:31;14.30;99.90
21031;DHT22;61072;47.808;7.636;2023-04-29T02:24:00;14.30;99.90
21031;DHT22;61072;47.808;7.636;2023-04-29T02:26:27;14.30;99.90
21031;DHT22;61072;47.808;7.636;2023-04-29T02:28:53;14.30;99.90
21031;DHT22;61072;47.808;7.636;2023-04-29T02:31:22;14.30;99.90
21031;DHT22;61072;47.808;7.636;2023-04-29T02:33:49;14.30;99.90
21031;DHT22;61072;47.808;7.636;2023-04-29T02:36:16;14.30;99.90
21031;DHT22;61072;47.808;7.636;2023-04-29T02:38:43;14.30;99.90
21031;DHT22;61072;47.808;7.636;2023-04-29T02:41:15;14.30;99.90
21031;DHT22;61072;47.808;7.636;2023-04-29T02:43:43;14.20;99.90
21031;DHT22;61072;47.808;7.636;2023-04-29T02:46:10;14.20;99.90
21031;DHT22;61072;47.808;7.636;2023-04-29T02:48:37;14.20;99.90
21031;DHT22;61072;47.808;7.636;2023-04-29T02:51:03;14.20;99.90
21031;DHT22;61072;47.808;7.636;2023-04-29T02:53:30;14.20;99.90
21031;DHT22;61072;47.808;7.636;2023-04-29T02:55:57;14.20;99.90
21031;DHT22;61072;47.808;7.636;2023-04-29T02:58:24;14.20;99.90
21031;DHT22;61072;47.808;7.636;2023-04-29T03:00:51;14.20;99.90
21031;DHT22;61072;47.808;7.636;2023-04-29T03:03:18;14.20;99.90
21031;DHT22;61072;47.808;7.636;2023-04-29T03:05:45;14.10;99.90
21031;DHT22;61072;47.808;7.636;2023-04-29T03:08:11;14.10;99.90
21031;DHT22;61072;47.808;7.636;2023-04-29T03:10:38;14.10;99.90
21031;DHT22;61072;47.808;7.636;2023-04-29T03:13:07;14.10;99.90
21031;DHT22;61072;47.808;7.636;2023-04-29T03:15:33;14.10;99.90
21031;DHT22;61072;47.808;7.636;2023-04-29T03:18:00;14.00;99.90
21031;DHT22;61072;47.808;7.636;2023-04-29T03:20:29;14.00;99.90
21031;DHT22;61072;47.808;7.636;2023-04-29T03:22:56;14.00;99.90
21031;DHT22;61072;47.808;7.636;2023-04-29T03:25:23;14.00;99.90
21031;DHT22;61072;47.808;7.636;2023-04-29T03:27:50;13.90;99.90
21031;DHT22;61072;47.808;7.636;2023-04-29T03:30:17;13.90;99.90
21031;DHT22;61072;47.808;7.636;2023-04-29T03:32:43;13.90;99.90
21031;DHT22;61072;47.808;7.636;2023-04-29T03:35:10;13.90;99.90
21031;DHT22;61072;47.808;7.636;2023-04-29T03:37:40;13.80;99.90
21031;DHT22;61072;47.808;7.636;2023-04-29T03:40:10;13.80;99.90
21031;DHT22;61072;47.808;7.636;2023-04-29T03:42:37;13.80;99.90
21031;DHT22;61072;47.808;7.636;2023-04-29T03:45:04;13.80;99.90
21031;DHT22;61072;47.808;7.636;2023-04-29T03:47:31;13.80;99.90
21031;DHT22;61072;47.808;7.636;2023-04-29T03:49:58;13.70;99.90
21031;DHT22;61072;47.808;7.636;2023-04-29T03:52:25;13.70;99.90
21031;DHT22;61072;47.808;7.636;2023-04-29T03:54:51;13.60;99.90
21031;DHT22;61072;47.808;7.636;2023-04-29T03:57:18;13.70;99.90
21031;DHT22;61072;47.808;7.636;2023-04-29T03:59:45;13.60;99.90
21031;DHT22;61072;47.808;7.636;2023-04-29T04:02:16;13.60;99.90
21031;DHT22;61072;47.808;7.636;2023-04-29T04:04:42;13.50;99.90
21031;DHT22;61072;47.808;7.636;2023-04-29T04:07:09;13.50;99.90
21031;DHT22;61072;47.808;7.636;2023-04-29T04:09:37;13.40;99.90
21031;DHT22;61072;47.808;7.636;2023-04-29T04:12:05;13.40;99.90
21031;DHT22;61072;47.808;7.636;2023-04-29T04:14:32;13.40;99.90
21031;DHT22;61072;47.808;7.636;2023-04-29T04:16:59;13.40;99.90
21031;DHT22;61072;47.808;7.636;2023-04-29T04:19:26;13.30;99.90
21031;DHT22;61072;47.808;7.636;2023-04-29T04:21:54;13.30;99.90
21031;DHT22;61072;47.808;7.636;2023-04-29T04:24:21;13.30;99.90
21031;DHT22;61072;47.808;7.636;2023-04-29T04:26:48;13.30;99.90
21031;DHT22;61072;47.808;7.636;2023-04-29T04:29:15;13.30;99.90
21031;DHT22;61072;47.808;7.636;2023-04-29T04:31:41;13.20;99.90
21031;DHT22;61072;47.808;7.636;2023-04-29T04:34:12;13.20;99.90
21031;DHT22;61072;47.808;7.636;2023-04-29T04:36:38;13.20;99.90
21031;DHT22;61072;47.808;7.636;2023-04-29T04:39:05;13.20;99.90
21031;DHT22;61072;47.808;7.636;2023-04-29T04:41:32;13.20;99.90
21031;DHT22;61072;47.808;7.636;2023-04-29T04:43:58;13.10;99.90
21031;DHT22;61072;47.808;7.636;2023-04-29T04:46:25;13.20;99.90
21031;DHT22;61072;47.808;7.636;2023-04-29T04:48:52;13.20;99.90
21031;DHT22;61072;47.808;7.636;2023-04-29T04:51:18;13.10;99.90
21031;DHT22;61072;47.808;7.636;2023-04-29T04:53:46;13.10;99.90
21031;DHT22;61072;47.808;7.636;2023-04-29T04:56:13;13.20;99.90
21031;DHT22;61072;47.808;7.636;2023-04-29T04:58:39;13.20;99.90
21031;DHT22;61072;47.808;7.636;2023-04-29T05:01:06;13.20;99.90
21031;DHT22;61072;47.808;7.636;2023-04-29T05:03:33;13.20;99.90
21031;DHT22;61072;47.808;7.636;2023-04-29T05:06:00;13.30;99.90
21031;DHT22;61072;47.808;7.636;2023-04-29T05:08:27;13.40;99.90
21031;DHT22;61072;47.808;7.636;2023-04-29T05:10:53;13.40;99.90
21031;DHT22;61072;47.808;7.636;2023-04-29T05:13:20;13.50;99.90
21031;DHT22;61072;47.808;7.636;2023-04-29T05:15:47;13.50;99.90
21031;DHT22;61072;47.808;7.636;2023-04-29T05:18:13;13.50;99.90
21031;DHT22;61072;47.808;7.636;2023-04-29T05:20:40;13.60;99.90
21031;DHT22;61072;47.808;7.636;2023-04-29T05:23:07;13.60;99.90
21031;DHT22;61072;47.808;7.636;2023-04-29T05:25:34;13.60;99.90
21031;DHT22;61072;47.808;7.636;2023-04-29T05:28:01;13.60;99.90
21031;DHT22;61072;47.808;7.636;2023-04-29T05:30:29;13.70;99.90
21031;DHT22;61072;47.808;7.636;2023-04-29T05:32:56;13.60;99.90
21031;DHT22;61072;47.808;7.636;2023-04-29T05:35:23;13.60;99.90
21031;DHT22;61072;47.808;7.636;2023-04-29T05:37:49;13.60;99.90
21031;DHT22;61072;47.808;7.636;2023-04-29T05:40:16;13.60;99.90
21031;DHT22;61072;47.808;7.636;2023-04-29T05:42:43;13.50;99.90
21031;DHT22;61072;47.808;7.636;2023-04-29T05:45:10;13.50;99.90
21031;DHT22;61072;47.808;7.636;2023-04-29T05:47:37;13.40;99.90
21031;DHT22;61072;47.808;7.636;2023-04-29T05:50:04;13.40;99.90
21031;DHT22;61072;47.808;7.636;2023-04-29T05:52:32;13.40;99.90
21031;DHT22;61072;47.808;7.636;2023-04-29T05:54:58;13.50;99.90
21031;DHT22;61072;47.808;7.636;2023-04-29T05:57:25;13.50;99.90
21031;DHT22;61072;47.808;7.636;2023-04-29T05:59:51;13.50;99.90
21031;DHT22;61072;47.808;7.636;2023-04-29T06:02:20;13.60;99.90
21031;DHT22;61072;47.808;7.636;2023-04-29T06:04:48;13.70;99.90
21031;DHT22;61072;47.808;7.636;2023-04-29T06:07:15;13.70;99.90
21031;DHT22;61072;47.808;7.636;2023-04-29T06:09:45;13.70;99.90
21031;DHT22;61072;47.808;7.636;2023-04-29T06:12:12;13.80;99.90
21031;DHT22;61072;47.808;7.636;2023-04-29T06:14:39;13.80;99.90
21031;DHT22;61072;47.808;7.636;2023-04-29T06:17:05;13.90;99.90
21031;DHT22;61072;47.808;7.636;2023-04-29T06:19:32;14.00;99.90
21031;DHT22;61072;47.808;7.636;2023-04-29T06:21:59;14.10;99.90
21031;DHT22;61072;47.808;7.636;2023-04-29T06:24:26;14.20;99.90
21031;DHT22;61072;47.808;7.636;2023-04-29T06:26:52;14.30;99.90
21031;DHT22;61072;47.808;7.636;2023-04-29T06:29:19;14.40;99.90
21031;DHT22;61072;47.808;7.636;2023-04-29T06:31:46;14.50;99.90
21031;DHT22;61072;47.808;7.636;2023-04-29T06:34:13;14.50;99.90
21031;DHT22;61072;47.808;7.636;2023-04-29T06:36:39;14.50;99.90
21031;DHT22;61072;47.808;7.636;2023-04-29T06:39:07;14.50;99.90
21031;DHT22;61072;47.808;7.636;2023-04-29T06:41:33;14.50;99.90
21031;DHT22;61072;47.808;7.636;2023-04-29T06:44:00;14.40;99.90
21031;DHT22;61072;47.808;7.636;2023-04-29T06:46:27;14.40;99.90
21031;DHT22;61072;47.808;7.636;2023-04-29T06:48:54;14.40;99.90
21031;DHT22;61072;47.808;7.636;2023-04-29T06:51:21;14.40;99.90
21031;DHT22;61072;47.808;7.636;2023-04-29T06:53:47;14.40;99.90
21031;DHT22;61072;47.808;7.636;2023-04-29T06:56:14;14.40;99.90
21031;DHT22;61072;47.808;7.636;2023-04-29T06:58:42;14.40;99.90
21031;DHT22;61072;47.808;7.636;2023-04-29T07:01:09;14.40;99.90
21031;DHT22;61072;47.808;7.636;2023-04-29T07:03:36;14.40;99.90
21031;DHT22;61072;47.808;7.636;2023-04-29T07:06:03;14.40;99.90
21031;DHT22;61072;47.808;7.636;2023-04-29T07:08:30;14.40;99.90
21031;DHT22;61072;47.808;7.636;2023-04-29T07:10:57;14.40;99.90
21031;DHT22;61072;47.808;7.636;2023-04-29T07:13:24;14.50;99.90
21031;DHT22;61072;47.808;7.636;2023-04-29T07:15:51;14.50;99.90
21031;DHT22;61072;47.808;7.636;2023-04-29T07:18:18;14.50;99.90
21031;DHT22;61072;47.808;7.636;2023-04-29T07:20:45;14.60;99.90
21031;DHT22;61072;47.808;7.636;2023-04-29T07:23:13;14.70;99.90
21031;DHT22;61072;47.808;7.636;2023-04-29T07:25:40;14.80;99.90
21031;DHT22;61072;47.808;7.636;2023-04-29T07:28:07;14.90;99.90
21031;DHT22;61072;47.808;7.636;2023-04-29T07:30:34;15.00;99.90
21031;DHT22;61072;47.808;7.636;2023-04-29T07:33:01;15.10;99.90
21031;DHT22;61072;47.808;7.636;2023-04-29T07:35:29;15.30;99.90
21031;DHT22;61072;47.808;7.636;2023-04-29T07:37:57;15.50;99.90
21031;DHT22;61072;47.808;7.636;2023-04-29T07:40:23;15.60;99.90
21031;DHT22;61072;47.808;7.636;2023-04-29T07:42:50;15.60;99.90
21031;DHT22;61072;47.808;7.636;2023-04-29T07:45:16;15.70;99.90
21031;DHT22;61072;47.808;7.636;2023-04-29T07:47:43;15.60;99.90
21031;DHT22;61072;47.808;7.636;2023-04-29T07:50:11;15.70;99.90
21031;DHT22;61072;47.808;7.636;2023-04-29T07:52:38;15.70;99.90
21031;DHT22;61072;47.808;7.636;2023-04-29T07:55:04;15.70;99.90
21031;DHT22;61072;47.808;7.636;2023-04-29T07:57:31;15.80;99.90
21031;DHT22;61072;47.808;7.636;2023-04-29T07:59:58;15.70;99.90
21031;DHT22;61072;47.808;7.636;2023-04-29T08:02:25;15.70;99.90
21031;DHT22;61072;47.808;7.636;2023-04-29T08:04:52;15.70;99.90
21031;DHT22;61072;47.808;7.636;2023-04-29T08:07:20;15.70;99.90
21031;DHT22;61072;47.808;7.636;2023-04-29T08:09:47;15.60;99.90
21031;DHT22;61072;47.808;7.636;2023-04-29T08:12:13;15.60;99.90
21031;DHT22;61072;47.808;7.636;2023-04-29T08:14:40;15.60;99.90
21031;DHT22;61072;47.808;7.636;2023-04-29T08:17:07;15.60;99.90
21031;DHT22;61072;47.808;7.636;2023-04-29T08:19:34;15.60;99.90
21031;DHT22;61072;47.808;7.636;2023-04-29T08:22:01;15.60;99.90
21031;DHT22;61072;47.808;7.636;2023-04-29T08:24:29;15.60;99.90
21031;DHT22;61072;47.808;7.636;2023-04-29T08:26:56;15.50;99.90
21031;DHT22;61072;47.808;7.636;2023-04-29T08:29:24;15.50;99.90
21031;DHT22;61072;47.808;7.636;2023-04-29T08:31:50;15.50;99.90
21031;DHT22;61072;47.808;7.636;2023-04-29T08:34:17;15.60;99.90
21031;DHT22;61072;47.808;7.636;2023-04-29T08:36:44;15.50;99.90
21031;DHT22;61072;47.808;7.636;2023-04-29T08:39:11;15.60;99.90
21031;DHT22;61072;47.808;7.636;2023-04-29T08:41:38;15.60;99.90
21031;DHT22;61072;47.808;7.636;2023-04-29T08:44:05;15.60;99.90
21031;DHT22;61072;47.808;7.636;2023-04-29T08:46:31;15.70;99.90
21031;DHT22;61072;47.808;7.636;2023-04-29T08:48:58;15.80;99.90
21031;DHT22;61072;47.808;7.636;2023-04-29T08:51:27;15.80;99.90
21031;DHT22;61072;47.808;7.636;2023-04-29T08:53:55;15.80;99.90
21031;DHT22;61072;47.808;7.636;2023-04-29T08:56:22;15.90;99.90
21031;DHT22;61072;47.808;7.636;2023-04-29T08:58:49;16.00;99.90
21031;DHT22;61072;47.808;7.636;2023-04-29T09:01:27;16.00;99.90
21031;DHT22;61072;47.808;7.636;2023-04-29T09:04:22;16.00;99.90
21031;DHT22;61072;47.808;7.636;2023-04-29T09:06:55;16.00;99.90
21031;DHT22;61072;47.808;7.636;2023-04-29T09:09:23;16.10;99.90
21031;DHT22;61072;47.808;7.636;2023-04-29T09:11:50;16.10;99.90
21031;DHT22;61072;47.808;7.636;2023-04-29T09:14:18;16.20;99.90
21031;DHT22;61072;47.808;7.636;2023-04-29T09:16:46;16.20;99.90
21031;DHT22;61072;47.808;7.636;2023-04-29T09:19:32;16.20;99.90
21031;DHT22;61072;47.808;7.636;2023-04-29T09:21:59;16.10;99.90
21031;DHT22;61072;47.808;7.636;2023-04-29T09:24:28;16.20;99.90
21031;DHT22;61072;47.808;7.636;2023-04-29T09:26:55;16.20;99.90
21031;DHT22;61072;47.808;7.636;2023-04-29T09:29:22;16.30;99.90
21031;DHT22;61072;47.808;7.636;2023-04-29T09:31:50;16.30;99.90
21031;DHT22;61072;47.808;7.636;2023-04-29T09:34:33;16.20;99.90
21031;DHT22;61072;47.808;7.636;2023-04-29T09:37:01;16.30;99.90
21031;DHT22;61072;47.808;7.636;2023-04-29T09:39:37;16.30;99.90
21031;DHT22;61072;47.808;7.636;2023-04-29T09:42:04;16.40;99.90
21031;DHT22;61072;47.808;7.636;2023-04-29T09:44:33;16.40;99.90
21031;DHT22;61072;47.808;7.636;2023-04-29T09:47:07;16.40;99.90
21031;DHT22;61072;47.808;7.636;2023-04-29T09:49:35;16.50;99.90
21031;DHT22;61072;47.808;7.636;2023-04-29T09:52:05;16.50;99.90
21031;DHT22;61072;47.808;7.636;2023-04-29T09:54:33;16.50;99.90
21031;DHT22;61072;47.808;7.636;2023-04-29T09:57:02;16.50;99.90
21031;DHT22;61072;47.808;7.636;2023-04-29T09:59:32;16.60;99.90
21031;DHT22;61072;47.808;7.636;2023-04-29T10:02:12;16.50;99.90
21031;DHT22;61072;47.808;7.636;2023-04-29T10:04:41;16.50;99.90
21031;DHT22;61072;47.808;7.636;2023-04-29T10:07:13;16.60;99.90
21031;DHT22;61072;47.808;7.636;2023-04-29T10:09:41;16.50;99.90
21031;DHT22;61072;47.808;7.636;2023-04-29T10:12:09;16.60;99.90
21031;DHT22;61072;47.808;7.636;2023-04-29T10:14:41;16.60;99.90
21031;DHT22;61072;47.808;7.636;2023-04-29T10:17:15;16.70;99.90
21031;DHT22;61072;47.808;7.636;2023-04-29T10:20:03;16.80;99.90
21031;DHT22;61072;47.808;7.636;2023-04-29T10:25:09;16.80;99.90
21031;DHT22;61072;47.808;7.636;2023-04-29T10:27:38;16.90;99.90
21031;DHT22;61072;47.808;7.636;2023-04-29T10:30:06;17.00;99.90
21031;DHT22;61072;47.808;7.636;2023-04-29T10:32:36;17.00;99.90
21031;DHT22;61072;47.808;7.636;2023-04-29T10:35:18;17.00;99.90
21031;DHT22;61072;47.808;7.636;2023-04-29T10:37:47;17.10;99.90
21031;DHT22;61072;47.808;7.636;2023-04-29T10:40:37;17.10;99.90
21031;DHT22;61072;47.808;7.636;2023-04-29T10:43:05;17.10;99.90
21031;DHT22;61072;47.808;7.636;2023-04-29T10:45:32;17.10;99.90
21031;DHT22;61072;47.808;7.636;2023-04-29T10:53:22;17.10;99.90
21031;DHT22;61072;47.808;7.636;2023-04-29T10:56:03;17.10;99.90
21031;DHT22;61072;47.808;7.636;2023-04-29T10:58:41;17.10;99.90
21031;DHT22;61072;47.808;7.636;2023-04-29T11:01:13;17.10;99.90
21031;DHT22;61072;47.808;7.636;2023-04-29T11:03:49;17.20;99.90
21031;DHT22;61072;47.808;7.636;2023-04-29T11:09:02;17.30;99.90
21031;DHT22;61072;47.808;7.636;2023-04-29T11:14:10;17.30;99.90
21031;DHT22;61072;47.808;7.636;2023-04-29T11:16:45;17.40;99.90
21031;DHT22;61072;47.808;7.636;2023-04-29T11:19:14;17.40;99.90
21031;DHT22;61072;47.808;7.636;2023-04-29T11:21:41;17.40;99.90
21031;DHT22;61072;47.808;7.636;2023-04-29T11:24:10;17.40;99.90
21031;DHT22;61072;47.808;7.636;2023-04-29T11:26:38;17.50;99.90
21031;DHT22;61072;47.808;7.636;2023-04-29T11:29:04;17.50;99.90
21031;DHT22;61072;47.808;7.636;2023-04-29T11:31:36;17.50;99.90
21031;DHT22;61072;47.808;7.636;2023-04-29T11:34:04;17.50;99.90
21031;DHT22;61072;47.808;7.636;2023-04-29T11:36:33;17.60;99.90
21031;DHT22;61072;47.808;7.636;2023-04-29T11:39:01;17.70;99.90
21031;DHT22;61072;47.808;7.636;2023-04-29T11:41:29;17.70;99.90
21031;DHT22;61072;47.808;7.636;2023-04-29T11:43:58;17.70;99.90
21031;DHT22;61072;47.808;7.636;2023-04-29T11:46:25;17.80;99.90
21031;DHT22;61072;47.808;7.636;2023-04-29T11:48:56;17.80;99.90
21031;DHT22;61072;47.808;7.636;2023-04-29T11:51:23;17.80;99.90
21031;DHT22;61072;47.808;7.636;2023-04-29T11:53:50;17.80;99.90
21031;DHT22;61072;47.808;7.636;2023-04-29T11:56:20;17.80;99.90
21031;DHT22;61072;47.808;7.636;2023-04-29T11:58:48;17.80;99.90
21031;DHT22;61072;47.808;7.636;2023-04-29T12:01:15;17.80;99.90
21031;DHT22;61072;47.808;7.636;2023-04-29T12:03:42;17.90;99.90
21031;DHT22;61072;47.808;7.636;2023-04-29T12:06:10;17.90;99.90
21031;DHT22;61072;47.808;7.636;2023-04-29T12:08:38;17.90;99.90
21031;DHT22;61072;47.808;7.636;2023-04-29T12:11:06;17.90;99.90
21031;DHT22;61072;47.808;7.636;2023-04-29T12:13:33;17.90;99.90
21031;DHT22;61072;47.808;7.636;2023-04-29T12:16:03;17.90;99.90
21031;DHT22;61072;47.808;7.636;2023-04-29T12:18:31;18.00;99.90
21031;DHT22;61072;47.808;7.636;2023-04-29T12:20:58;18.00;99.90
21031;DHT22;61072;47.808;7.636;2023-04-29T12:23:25;18.00;99.90
21031;DHT22;61072;47.808;7.636;2023-04-29T12:25:55;18.10;99.90
21031;DHT22;61072;47.808;7.636;2023-04-29T12:28:22;18.10;99.90
21031;DHT22;61072;47.808;7.636;2023-04-29T12:30:51;18.10;99.90
21031;DHT22;61072;47.808;7.636;2023-04-29T12:33:27;18.10;99.90
21031;DHT22;61072;47.808;7.636;2023-04-29T12:35:56;18.10;99.90
21031;DHT22;61072;47.808;7.636;2023-04-29T12:38:25;18.20;99.90
21031;DHT22;61072;47.808;7.636;2023-04-29T12:40:57;18.20;99.90
21031;DHT22;61072;47.808;7.636;2023-04-29T12:43:28;18.30;99.90
21031;DHT22;61072;47.808;7.636;2023-04-29T12:46:08;18.40;99.90
21031;DHT22;61072;47.808;7.636;2023-04-29T12:48:36;18.50;99.90
21031;DHT22;61072;47.808;7.636;2023-04-29T12:51:09;18.60;99.90
21031;DHT22;61072;47.808;7.636;2023-04-29T12:53:37;18.60;99.90
21031;DHT22;61072;47.808;7.636;2023-04-29T12:56:05;18.70;99.90
21031;DHT22;61072;47.808;7.636;2023-04-29T12:58:32;18.80;99.90
21031;DHT22;61072;47.808;7.636;2023-04-29T13:01:00;18.90;99.90
21031;DHT22;61072;47.808;7.636;2023-04-29T13:03:27;19.00;99.90
21031;DHT22;61072;47.808;7.636;2023-04-29T13:05:54;18.90;99.90
21031;DHT22;61072;47.808;7.636;2023-04-29T13:08:21;18.90;99.90
21031;DHT22;61072;47.808;7.636;2023-04-29T13:10:48;18.90;99.90
21031;DHT22;61072;47.808;7.636;2023-04-29T13:13:15;19.00;99.90
21031;DHT22;61072;47.808;7.636;2023-04-29T13:15:42;19.00;99.90
21031;DHT22;61072;47.808;7.636;2023-04-29T13:18:08;19.00;99.90
21031;DHT22;61072;47.808;7.636;2023-04-29T13:20:35;18.90;99.90
21031;DHT22;61072;47.808;7.636;2023-04-29T13:23:08;18.90;99.90
21031;DHT22;61072;47.808;7.636;2023-04-29T13:25:34;18.80;99.90
21031;DHT22;61072;47.808;7.636;2023-04-29T13:28:01;18.90;99.90
21031;DHT22;61072;47.808;7.636;2023-04-29T13:30:28;18.80;99.90
21031;DHT22;61072;47.808;7.636;2023-04-29T13:32:55;18.80;99.90
21031;DHT22;61072;47.808;7.636;2023-04-29T13:35:33;18.90;99.90
21031;DHT22;61072;47.808;7.636;2023-04-29T13:38:01;18.80;99.90
21031;DHT22;61072;47.808;7.636;2023-04-29T13:40:28;18.80;99.90
21031;DHT22;61072;47.808;7.636;2023-04-29T13:42:55;18.80;99.90
21031;DHT22;61072;47.808;7.636;2023-04-29T13:45:33;18.80;99.90
21031;DHT22;61072;47.808;7.636;2023-04-29T13:48:05;18.70;99.90
21031;DHT22;61072;47.808;7.636;2023-04-29T13:50:46;18.70;99.90
21031;DHT22;61072;47.808;7.636;2023-04-29T13:53:15;18.80;99.90
21031;DHT22;61072;47.808;7.636;2023-04-29T13:55:45;18.80;99.90
21031;DHT22;61072;47.808;7.636;2023-04-29T13:58:15;18.70;99.90
21031;DHT22;61072;47.808;7.636;2023-04-29T14:01:02;18.60;99.90
21031;DHT22;61072;47.808;7.636;2023-04-29T14:03:32;18.60;99.90
21031;DHT22;61072;47.808;7.636;2023-04-29T14:06:01;18.50;99.90
21031;DHT22;61072;47.808;7.636;2023-04-29T14:08:28;18.60;99.90
21031;DHT22;61072;47.808;7.636;2023-04-29T14:10:54;18.50;99.90
21031;DHT22;61072;47.808;7.636;2023-04-29T14:13:22;18.50;99.90
21031;DHT22;61072;47.808;7.636;2023-04-29T14:15:48;18.50;99.90
21031;DHT22;61072;47.808;7.636;2023-04-29T14:18:15;18.40;99.90
21031;DHT22;61072;47.808;7.636;2023-04-29T14:20:42;18.30;99.90
21031;DHT22;61072;47.808;7.636;2023-04-29T14:23:09;18.20;99.90
21031;DHT22;61072;47.808;7.636;2023-04-29T14:25:35;18.20;99.90
21031;DHT22;61072;47.808;7.636;2023-04-29T14:28:02;18.10;99.90
21031;DHT22;61072;47.808;7.636;2023-04-29T14:30:29;18.10;99.90
21031;DHT22;61072;47.808;7.636;2023-04-29T14:32:56;18.10;99.90
21031;DHT22;61072;47.808;7.636;2023-04-29T14:35:23;18.10;99.90
21031;DHT22;61072;47.808;7.636;2023-04-29T14:37:49;18.10;99.90
21031;DHT22;61072;47.808;7.636;2023-04-29T14:40:16;18.10;99.90
21031;DHT22;61072;47.808;7.636;2023-04-29T14:42:43;18.10;99.90
21031;DHT22;61072;47.808;7.636;2023-04-29T14:45:10;18.10;99.90
21031;DHT22;61072;47.808;7.636;2023-04-29T14:47:37;18.20;99.90
21031;DHT22;61072;47.808;7.636;2023-04-29T14:50:04;18.10;99.90
21031;DHT22;61072;47.808;7.636;2023-04-29T14:52:31;18.10;99.90
21031;DHT22;61072;47.808;7.636;2023-04-29T14:54:58;18.10;99.90
21031;DHT22;61072;47.808;7.636;2023-04-29T14:57:24;18.00;99.90
21031;DHT22;61072;47.808;7.636;2023-04-29T14:59:51;17.90;99.90
21031;DHT22;61072;47.808;7.636;2023-04-29T15:02:18;17.90;99.90
21031;DHT22;61072;47.808;7.636;2023-04-29T15:04:45;17.70;99.90
21031;DHT22;61072;47.808;7.636;2023-04-29T15:07:12;17.70;99.90
21031;DHT22;61072;47.808;7.636;2023-04-29T15:09:39;17.60;99.90
21031;DHT22;61072;47.808;7.636;2023-04-29T15:12:06;17.60;99.90
21031;DHT22;61072;47.808;7.636;2023-04-29T15:14:32;17.50;99.90
21031;DHT22;61072;47.808;7.636;2023-04-29T15:16:59;17.50;99.90
21031;DHT22;61072;47.808;7.636;2023-04-29T15:19:26;17.50;99.90
21031;DHT22;61072;47.808;7.636;2023-04-29T15:21:53;17.60;99.90
21031;DHT22;61072;47.808;7.636;2023-04-29T15:24:20;17.50;99.90
21031;DHT22;61072;47.808;7.636;2023-04-29T15:26:46;17.50;99.90
21031;DHT22;61072;47.808;7.636;2023-04-29T15:29:13;17.40;99.90
21031;DHT22;61072;47.808;7.636;2023-04-29T15:31:40;17.40;99.90
21031;DHT22;61072;47.808;7.636;2023-04-29T15:34:07;17.40;99.90
21031;DHT22;61072;47.808;7.636;2023-04-29T15:36:33;17.40;99.90
21031;DHT22;61072;47.808;7.636;2023-04-29T15:39:00;17.40;99.90
21031;DHT22;61072;47.808;7.636;2023-04-29T15:41:27;17.30;99.90
21031;DHT22;61072;47.808;7.636;2023-04-29T15:43:55;17.20;99.90
21031;DHT22;61072;47.808;7.636;2023-04-29T15:46:22;17.20;99.90
21031;DHT22;61072;47.808;7.636;2023-04-29T15:48:49;17.20;99.90
21031;DHT22;61072;47.808;7.636;2023-04-29T15:51:16;17.20;99.90
21031;DHT22;61072;47.808;7.636;2023-04-29T15:53:43;17.00;99.90
21031;DHT22;61072;47.808;7.636;2023-04-29T15:56:10;16.90;99.90
21031;DHT22;61072;47.808;7.636;2023-04-29T15:58:36;16.90;99.90
21031;DHT22;61072;47.808;7.636;2023-04-29T16:01:03;16.90;99.90